createdAt,value
2019-04-20T00:02:25.399Z,6.50
2019-04-20T00:04:55.005Z,6.50
2019-04-20T00:07:29.174Z,6.40
2019-04-20T00:10:02.594Z,6.40
2019-04-20T00:12:36.744Z,6.50
2019-04-20T00:14:55.056Z,6.50
2019-04-20T00:17:25.017Z,6.50
2019-04-20T00:19:57.270Z,6.50
2019-04-20T00:22:36.742Z,6.60
2019-04-20T00:25:12.628Z,6.70
2019-04-20T00:27:59.555Z,6.60
2019-04-20T00:30:36.676Z,6.70
2019-04-20T00:32:53.352Z,6.70
2019-04-20T00:35:10.581Z,6.80
2019-04-20T00:37:40.196Z,6.80
2019-04-20T00:40:09.903Z,6.80
2019-04-20T00:42:45.254Z,6.80
2019-04-20T00:45:16.226Z,6.90
2019-04-20T00:47:47.738Z,6.90
2019-04-20T00:50:28.217Z,6.90
2019-04-20T00:52:55.261Z,6.90
2019-04-20T00:55:12.861Z,7.00
2019-04-20T00:57:49.578Z,7.00
2019-04-20T01:00:32.787Z,7.00
2019-04-20T01:02:55.577Z,7.00
2019-04-20T01:05:27.581Z,7.10
2019-04-20T01:07:52.100Z,7.10
2019-04-20T01:10:21.684Z,7.20
2019-04-20T01:12:52.003Z,7.20
2019-04-20T01:15:28.998Z,7.20
2019-04-20T01:17:51.258Z,7.20
2019-04-20T01:20:22.678Z,7.20
2019-04-20T01:22:57.227Z,7.20
2019-04-20T01:25:28.347Z,7.20
2019-04-20T01:28:10.267Z,7.20
2019-04-20T01:30:30.269Z,7.20
2019-04-20T01:33:03.502Z,7.30
2019-04-20T01:35:42.087Z,7.20
2019-04-20T01:38:12.438Z,7.20
2019-04-20T01:40:25.248Z,7.20
2019-04-20T01:42:55.233Z,7.20
2019-04-20T01:45:30.747Z,7.20
2019-04-20T01:47:57.844Z,7.20
2019-04-20T01:50:28.386Z,7.10
2019-04-20T01:53:08.983Z,7.10
2019-04-20T01:55:56.110Z,7.10
2019-04-20T01:58:33.741Z,7.00
2019-04-20T02:00:45.961Z,6.90
2019-04-20T02:03:38.405Z,6.90
2019-04-20T02:06:16.752Z,6.80
2019-04-20T02:08:42.207Z,6.80
2019-04-20T02:11:18.647Z,6.80
2019-04-20T02:13:48.013Z,6.70
2019-04-20T02:16:22.992Z,6.70
2019-04-20T02:19:03.043Z,6.70
2019-04-20T02:21:30.024Z,6.70
2019-04-20T02:23:49.893Z,6.60
2019-04-20T02:26:14.308Z,6.60
2019-04-20T02:29:06.049Z,6.60
2019-04-20T02:34:40.118Z,6.50
2019-04-20T02:37:13.903Z,6.50
2019-04-20T02:39:47.167Z,6.50
2019-04-20T02:42:22.629Z,6.50
2019-04-20T02:49:59.856Z,6.40
2019-04-20T02:52:22.624Z,6.40
2019-04-20T02:54:46.823Z,6.40
2019-04-20T02:57:20.506Z,6.40
2019-04-20T02:59:58.915Z,6.40
2019-04-20T03:02:04.135Z,6.40
2019-04-20T03:04:28.324Z,6.40
2019-04-20T03:07:05.248Z,6.40
2019-04-20T03:09:39.914Z,6.30
2019-04-20T03:12:08.232Z,6.40
2019-04-20T03:14:35.214Z,6.30
2019-04-20T03:17:13.881Z,6.30
2019-04-20T03:19:33.981Z,6.30
2019-04-20T03:22:18.881Z,6.30
2019-04-20T03:24:46.902Z,6.30
2019-04-20T03:27:08.261Z,6.30
2019-04-20T03:32:40.312Z,6.30
2019-04-20T03:37:19.357Z,6.30
2019-04-20T03:39:40.555Z,6.30
2019-04-20T03:41:58.788Z,6.40
2019-04-20T03:44:30.905Z,6.40
2019-04-20T03:47:03.416Z,6.40
2019-04-20T03:49:54.870Z,6.30
2019-04-20T03:52:31.334Z,6.40
2019-04-20T03:55:10.304Z,6.40
2019-04-20T03:57:51.259Z,6.50
2019-04-20T04:00:36.222Z,6.40
2019-04-20T04:03:19.999Z,6.50
2019-04-20T04:05:42.284Z,6.60
2019-04-20T04:08:10.625Z,6.50
2019-04-20T04:10:47.151Z,6.50
2019-04-20T04:13:07.286Z,6.60
2019-04-20T04:15:42.708Z,6.60
2019-04-20T04:18:15.859Z,6.70
2019-04-20T04:20:47.861Z,6.70
2019-04-20T04:23:22.170Z,6.70
2019-04-20T04:25:59.372Z,6.70
2019-04-20T04:28:28.523Z,6.80
2019-04-20T04:31:09.518Z,6.90
2019-04-20T04:33:53.202Z,6.80
2019-04-20T04:36:07.110Z,7.00
2019-04-20T04:38:42.494Z,7.00
2019-04-20T04:41:13.665Z,7.20
2019-04-20T04:43:38.880Z,7.20
2019-04-20T04:45:49.664Z,7.20
2019-04-20T04:48:25.212Z,7.30
2019-04-20T04:50:56.102Z,7.20
2019-04-20T04:53:29.838Z,7.30
2019-04-20T04:55:57.525Z,7.30
2019-04-20T04:58:19.968Z,7.40
2019-04-20T05:00:49.309Z,7.50
2019-04-20T05:03:35.324Z,7.50
2019-04-20T05:06:14.763Z,7.50
2019-04-20T05:08:31.705Z,7.40
2019-04-20T05:10:56.186Z,7.50
2019-04-20T05:13:26.824Z,7.50
2019-04-20T05:16:11.038Z,7.60
2019-04-20T05:18:51.442Z,7.70
2019-04-20T05:21:15.307Z,7.60
2019-04-20T05:23:41.173Z,7.70
2019-04-20T05:26:25.593Z,7.80
2019-04-20T05:28:50.654Z,7.80
2019-04-20T05:31:11.574Z,7.60
2019-04-20T05:34:08.510Z,7.70
2019-04-20T05:36:29.646Z,7.70
2019-04-20T05:39:10.196Z,7.50
2019-04-20T05:41:41.762Z,7.40
2019-04-20T05:44:08.771Z,7.60
2019-04-20T05:46:42.310Z,7.50
2019-04-20T05:49:18.948Z,7.60
2019-04-20T05:51:43.319Z,7.70
2019-04-20T05:54:37.124Z,7.80
2019-04-20T05:56:45.718Z,7.90
2019-04-20T05:59:17.868Z,7.90
2019-04-20T06:01:52.798Z,7.80
2019-04-20T06:04:16.850Z,7.60
2019-04-20T06:06:49.749Z,7.70
2019-04-20T06:09:22.701Z,7.90
2019-04-20T06:12:04.359Z,8.00
2019-04-20T06:14:10.390Z,8.10
2019-04-20T06:17:10.604Z,8.20
2019-04-20T06:19:31.909Z,8.30
2019-04-20T06:22:11.274Z,8.20
2019-04-20T06:24:44.971Z,8.30
2019-04-20T06:27:12.766Z,8.30
2019-04-20T06:29:37.642Z,8.30
2019-04-20T06:32:11.016Z,8.50
2019-04-20T06:34:40.021Z,8.60
2019-04-20T06:37:05.832Z,8.60
2019-04-20T06:39:44.954Z,8.70
2019-04-20T06:44:58.815Z,8.70
2019-04-20T06:49:56.794Z,8.90
2019-04-20T06:55:02.796Z,8.90
2019-04-20T06:57:49.993Z,8.80
2019-04-20T07:00:14.137Z,9.00
2019-04-20T07:05:11.842Z,9.10
2019-04-20T07:07:43.190Z,9.30
2019-04-20T07:10:16.366Z,9.20
2019-04-20T07:12:36.911Z,9.20
2019-04-20T07:15:01.772Z,9.20
2019-04-20T07:17:49.024Z,9.30
2019-04-20T07:20:10.519Z,9.30
2019-04-20T07:22:46.475Z,9.60
2019-04-20T07:25:19.057Z,9.40
2019-04-20T07:27:49.012Z,9.60
2019-04-20T07:30:17.572Z,9.60
2019-04-20T07:33:03.707Z,9.60
2019-04-20T07:35:22.107Z,9.70
2019-04-20T07:40:21.703Z,10.00
2019-04-20T07:42:57.696Z,10.00
2019-04-20T07:48:02.785Z,10.20
2019-04-20T07:50:21.811Z,10.20
2019-04-20T07:52:46.225Z,10.30
2019-04-20T07:57:55.026Z,10.30
2019-04-20T08:00:44.945Z,10.40
2019-04-20T08:03:29.597Z,10.20
2019-04-20T08:05:44.350Z,10.30
2019-04-20T08:08:22.743Z,10.20
2019-04-20T08:10:52.032Z,10.20
2019-04-20T08:13:33.366Z,10.00
2019-04-20T08:15:57.096Z,10.10
2019-04-20T08:21:00.430Z,10.60
2019-04-20T08:23:36.020Z,10.80
2019-04-20T08:25:47.061Z,10.60
2019-04-20T08:28:16.666Z,10.40
2019-04-20T08:30:57.264Z,10.50
2019-04-20T08:33:30.922Z,10.70
2019-04-20T08:36:06.340Z,10.20
2019-04-20T08:39:01.370Z,10.30
2019-04-20T08:41:05.225Z,10.20
2019-04-20T08:43:46.824Z,10.30
2019-04-20T08:46:10.363Z,10.30
2019-04-20T08:48:43.595Z,10.30
2019-04-20T08:51:07.509Z,10.20
2019-04-20T08:53:36.330Z,10.10
2019-04-20T08:55:59.061Z,10.00
2019-04-20T08:58:18.112Z,10.10
2019-04-20T09:00:53.643Z,10.10
2019-04-20T09:03:25.386Z,10.30
2019-04-20T09:05:59.527Z,10.10
2019-04-20T09:08:26.016Z,10.10
2019-04-20T09:11:12.707Z,10.30
2019-04-20T09:13:31.593Z,10.50
2019-04-20T09:15:51.393Z,10.70
2019-04-20T09:18:40.263Z,10.90
2019-04-20T09:21:13.733Z,10.90
2019-04-20T09:23:45.591Z,10.60
2019-04-20T09:26:20.499Z,10.60
2019-04-20T09:28:47.974Z,10.10
2019-04-20T09:31:21.303Z,10.60
2019-04-20T09:34:15.805Z,10.60
2019-04-20T09:36:49.950Z,10.70
2019-04-20T09:39:27.137Z,10.50
2019-04-20T09:42:01.735Z,10.60
2019-04-20T09:44:37.585Z,10.60
2019-04-20T09:47:03.248Z,10.20
2019-04-20T09:49:44.525Z,10.20
2019-04-20T09:52:16.937Z,10.00
2019-04-20T09:54:52.843Z,10.00
2019-04-20T09:57:25.456Z,10.20
2019-04-20T09:59:55.181Z,10.20
2019-04-20T10:02:13.718Z,10.30
2019-04-20T10:04:37.580Z,10.40
2019-04-20T10:07:12.862Z,10.40
2019-04-20T10:09:42.675Z,10.50
2019-04-20T10:12:07.964Z,10.50
2019-04-20T10:14:36.828Z,10.40
2019-04-20T10:17:05.775Z,10.40
2019-04-20T10:19:37.382Z,10.50
2019-04-20T10:22:04.948Z,10.60
2019-04-20T10:24:36.884Z,10.50
2019-04-20T10:27:04.123Z,10.50
2019-04-20T10:29:35.790Z,10.30
2019-04-20T10:32:07.780Z,10.30
2019-04-20T10:34:35.245Z,10.20
2019-04-20T10:37:06.306Z,10.30
2019-04-20T10:39:36.655Z,10.10
2019-04-20T10:42:06.019Z,9.80
2019-04-20T10:44:34.963Z,9.90
2019-04-20T10:47:07.105Z,9.90
2019-04-20T10:49:37.368Z,9.80
2019-04-20T10:52:07.473Z,10.10
2019-04-20T10:54:36.543Z,10.20
2019-04-20T10:57:05.768Z,10.00
2019-04-20T10:59:34.632Z,10.10
2019-04-20T11:02:03.613Z,10.40
2019-04-20T11:04:32.757Z,10.30
2019-04-20T11:07:02.741Z,10.10
2019-04-20T11:09:32.474Z,10.20
2019-04-20T11:12:02.207Z,10.10
2019-04-20T11:14:34.550Z,10.10
2019-04-20T11:17:02.565Z,10.30
2019-04-20T11:19:31.639Z,10.50
2019-04-20T11:22:00.496Z,10.80
2019-04-20T11:24:30.199Z,11.00
2019-04-20T11:27:00.454Z,11.00
2019-04-20T11:29:29.280Z,11.00
2019-04-20T11:31:59.366Z,10.70
2019-04-20T11:34:33.369Z,10.70
2019-04-20T11:36:59.221Z,11.00
2019-04-20T11:39:29.235Z,10.90
2019-04-20T11:41:59.767Z,11.20
2019-04-20T11:44:31.453Z,11.30
2019-04-20T11:46:58.950Z,11.20
2019-04-20T11:49:27.837Z,11.20
2019-04-20T11:51:57.333Z,11.00
2019-04-20T11:54:26.347Z,11.30
2019-04-20T11:56:55.496Z,11.30
2019-04-20T11:59:25.385Z,11.40
2019-04-20T12:02:04.623Z,11.40
2019-04-20T12:04:42.044Z,11.30
2019-04-20T12:07:04.797Z,11.40
2019-04-20T12:09:33.588Z,11.20
2019-04-20T12:12:17.867Z,11.30
2019-04-20T12:14:32.740Z,11.20
2019-04-20T12:17:01.799Z,11.10
2019-04-20T12:19:31.164Z,11.00
2019-04-20T12:22:00.148Z,11.00
2019-04-20T12:24:29.200Z,11.20
2019-04-20T12:26:58.715Z,11.20
2019-04-20T12:29:27.942Z,11.30
2019-04-20T12:32:00.046Z,11.20
2019-04-20T12:34:28.578Z,11.10
2019-04-20T12:36:58.489Z,11.40
2019-04-20T12:39:27.436Z,10.90
2019-04-20T12:41:58.780Z,10.90
2019-04-20T12:44:27.871Z,11.00
2019-04-20T12:46:57.180Z,11.00
2019-04-20T12:49:43.393Z,11.20
2019-04-20T12:52:12.444Z,11.30
2019-04-20T12:54:44.233Z,11.20
2019-04-20T12:57:11.870Z,11.30
2019-04-20T12:59:42.736Z,11.30
2019-04-20T13:02:11.418Z,11.40
2019-04-20T13:04:41.555Z,11.40
2019-04-20T13:07:12.030Z,11.30
2019-04-20T13:09:50.623Z,11.30
2019-04-20T13:12:30.198Z,11.40
2019-04-20T13:15:08.636Z,11.40
2019-04-20T13:17:37.996Z,11.20
2019-04-20T13:20:08.224Z,11.30
2019-04-20T13:22:37.089Z,11.30
2019-04-20T13:25:07.301Z,11.30
2019-04-20T13:27:36.657Z,11.40
2019-04-20T13:30:07.413Z,11.40
2019-04-20T13:32:36.204Z,11.40
2019-04-20T13:35:07.991Z,11.50
2019-04-20T13:37:38.787Z,11.60
2019-04-20T13:40:07.174Z,11.80
2019-04-20T13:42:36.469Z,11.70
2019-04-20T13:45:08.666Z,11.50
2019-04-20T13:47:38.952Z,11.50
2019-04-20T13:50:09.342Z,11.60
2019-04-20T13:52:38.517Z,11.60
2019-04-20T13:55:08.700Z,11.50
2019-04-20T13:57:42.095Z,11.40
2019-04-20T14:00:29.270Z,11.30
2019-04-20T14:03:00.662Z,11.40
2019-04-20T14:05:35.066Z,11.50
2019-04-20T14:08:07.465Z,11.60
2019-04-20T14:10:37.668Z,11.60
2019-04-20T14:13:12.159Z,11.60
2019-04-20T14:15:37.402Z,11.60
2019-04-20T14:18:06.939Z,11.60
2019-04-20T14:20:36.222Z,11.50
2019-04-20T14:23:05.316Z,11.50
2019-04-20T14:25:34.196Z,11.60
2019-04-20T14:28:02.924Z,11.80
2019-04-20T14:30:33.007Z,12.10
2019-04-20T14:33:03.034Z,11.90
2019-04-20T14:35:32.657Z,11.90
2019-04-20T14:38:01.713Z,11.60
2019-04-20T14:40:30.623Z,11.90
2019-04-20T14:43:00.453Z,12.00
2019-04-20T14:45:29.882Z,12.20
2019-04-20T14:47:59.548Z,12.00
2019-04-20T14:50:29.838Z,11.80
2019-04-20T14:52:59.767Z,11.50
2019-04-20T14:55:29.717Z,11.40
2019-04-20T14:58:01.491Z,11.40
2019-04-20T15:00:53.011Z,11.60
2019-04-20T15:03:30.619Z,11.80
2019-04-20T15:06:02.034Z,12.10
2019-04-20T15:08:32.469Z,12.60
2019-04-20T15:11:01.264Z,12.90
2019-04-20T15:13:30.798Z,12.50
2019-04-20T15:15:59.709Z,12.20
2019-04-20T15:18:39.774Z,12.70
2019-04-20T15:21:13.447Z,13.20
2019-04-20T15:23:43.625Z,13.00
2019-04-20T15:26:13.843Z,13.10
2019-04-20T15:28:42.554Z,13.00
2019-04-20T15:31:12.144Z,13.30
2019-04-20T15:33:41.120Z,12.20
2019-04-20T15:36:10.571Z,11.40
2019-04-20T15:38:42.937Z,11.00
2019-04-20T15:41:14.970Z,11.50
2019-04-20T15:43:43.561Z,11.80
2019-04-20T15:46:13.087Z,11.80
2019-04-20T15:48:41.901Z,12.10
2019-04-20T15:51:11.945Z,12.40
2019-04-20T15:53:41.744Z,12.00
2019-04-20T15:56:11.772Z,12.20
2019-04-20T15:58:44.132Z,12.00
2019-04-20T16:01:12.215Z,12.00
2019-04-20T16:03:45.726Z,12.20
2019-04-20T16:06:14.673Z,12.30
2019-04-20T16:08:45.999Z,12.30
2019-04-20T16:11:15.288Z,12.00
2019-04-20T16:13:49.424Z,12.20
2019-04-20T16:16:16.064Z,11.40
2019-04-20T16:18:45.324Z,11.60
2019-04-20T16:21:20.943Z,11.40
2019-04-20T16:23:56.933Z,11.10
2019-04-20T16:26:37.695Z,11.10
2019-04-20T16:29:08.113Z,11.40
2019-04-20T16:31:38.292Z,10.80
2019-04-20T16:34:07.617Z,10.40
2019-04-20T16:36:36.793Z,10.40
2019-04-20T16:39:09.312Z,10.40
2019-04-20T16:41:38.291Z,10.40
2019-04-20T16:44:07.228Z,10.50
2019-04-20T16:46:36.355Z,10.10
2019-04-20T16:49:05.313Z,10.10
2019-04-20T16:51:34.739Z,10.00
2019-04-20T16:54:03.917Z,9.80
2019-04-20T16:56:33.004Z,9.70
2019-04-20T16:59:09.309Z,9.40
2019-04-20T17:01:32.397Z,9.30
2019-04-20T17:04:07.170Z,9.20
2019-04-20T17:06:32.456Z,9.10
2019-04-20T17:09:01.254Z,9.10
2019-04-20T17:11:30.161Z,9.10
2019-04-20T17:14:01.592Z,9.00
2019-04-20T17:16:29.408Z,8.90
2019-04-20T17:18:59.516Z,9.00
2019-04-20T17:21:30.618Z,8.90
2019-04-20T17:23:59.460Z,8.90
2019-04-20T17:26:30.019Z,8.80
2019-04-20T17:29:13.631Z,8.80
2019-04-20T17:31:45.157Z,8.70
2019-04-20T17:34:29.842Z,8.80
2019-04-20T17:36:46.530Z,8.70
2019-04-20T17:39:26.202Z,8.60
2019-04-20T17:42:02.940Z,8.60
2019-04-20T17:44:31.491Z,8.50
2019-04-20T17:46:59.082Z,8.50
2019-04-20T17:49:31.467Z,8.40
2019-04-20T17:52:12.135Z,8.40
2019-04-20T17:54:23.475Z,8.40
2019-04-20T17:56:52.457Z,8.40
2019-04-20T17:59:22.206Z,8.30
2019-04-20T18:02:06.665Z,8.40
2019-04-20T18:04:57.384Z,8.30
2019-04-20T18:07:18.231Z,8.30
2019-04-20T18:09:54.756Z,8.20
2019-04-20T18:12:04.566Z,8.30
2019-04-20T18:14:46.402Z,8.30
2019-04-20T18:17:32.023Z,8.20
2019-04-20T18:19:54.545Z,8.20
2019-04-20T18:22:23.575Z,8.10
2019-04-20T18:25:16.296Z,8.10
2019-04-20T18:27:44.113Z,8.00
2019-04-20T18:30:10.788Z,8.00
2019-04-20T18:32:29.599Z,7.90
2019-04-20T18:35:06.282Z,7.90
2019-04-20T18:37:34.372Z,7.90
2019-04-20T18:40:10.715Z,7.90
2019-04-20T18:42:40.332Z,7.90
2019-04-20T18:45:21.873Z,7.90
2019-04-20T18:47:53.913Z,7.80
2019-04-20T18:50:17.292Z,7.80
2019-04-20T18:52:40.057Z,7.70
2019-04-20T18:55:16.270Z,7.70
2019-04-20T18:57:39.806Z,7.70
2019-04-20T19:00:18.104Z,7.70
2019-04-20T19:02:44.552Z,7.70
2019-04-20T19:05:11.503Z,7.70
2019-04-20T19:07:51.639Z,7.60
2019-04-20T19:10:21.334Z,7.70
2019-04-20T19:12:50.340Z,7.70
2019-04-20T19:15:46.809Z,7.70
2019-04-20T19:18:08.170Z,7.70
2019-04-20T19:20:29.021Z,7.70
2019-04-20T19:22:58.131Z,7.70
2019-04-20T19:25:31.580Z,7.70
2019-04-20T19:28:00.104Z,7.60
2019-04-20T19:30:37.665Z,7.70
2019-04-20T19:33:14.571Z,7.60
2019-04-20T19:35:41.764Z,7.60
2019-04-20T19:38:09.405Z,7.50
2019-04-20T19:40:42.967Z,7.50
2019-04-20T19:43:14.662Z,7.50
2019-04-20T19:46:01.153Z,7.50
2019-04-20T19:48:20.464Z,7.40
2019-04-20T19:50:59.026Z,7.40
2019-04-20T19:53:26.341Z,7.40
2019-04-20T19:55:47.767Z,7.50
2019-04-20T19:58:16.184Z,7.60
2019-04-20T20:00:46.837Z,7.60
2019-04-20T20:03:15.496Z,7.60
2019-04-20T20:05:46.975Z,7.70
2019-04-20T20:08:19.884Z,7.70
2019-04-20T20:10:45.884Z,7.70
2019-04-20T20:13:14.974Z,7.60
2019-04-20T20:15:45.522Z,7.60
2019-04-20T20:18:30.656Z,7.60
2019-04-20T20:21:00.629Z,7.70
2019-04-20T20:23:16.206Z,7.70
2019-04-20T20:25:48.151Z,7.70
2019-04-20T20:28:28.713Z,7.70
2019-04-20T20:30:56.882Z,7.60
2019-04-20T20:33:35.117Z,7.70
2019-04-20T20:35:58.651Z,7.60
2019-04-20T20:38:25.580Z,7.60
2019-04-20T20:41:01.555Z,7.60
2019-04-20T20:43:31.810Z,7.60
2019-04-20T20:46:01.128Z,7.60
2019-04-20T20:48:35.661Z,7.60
2019-04-20T20:51:12.077Z,7.60
2019-04-20T20:53:37.579Z,7.50
2019-04-20T20:56:01.818Z,7.50
2019-04-20T20:58:40.644Z,7.50
2019-04-20T21:00:58.543Z,7.50
2019-04-20T21:03:28.021Z,7.50
2019-04-20T21:05:52.000Z,7.50
2019-04-20T21:08:26.126Z,7.50
2019-04-20T21:10:54.914Z,7.50
2019-04-20T21:13:28.379Z,7.50
2019-04-20T21:16:02.521Z,7.50
2019-04-20T21:18:42.441Z,7.40
2019-04-20T21:21:11.762Z,7.40
2019-04-20T21:23:36.817Z,7.40
2019-04-20T21:26:12.859Z,7.40
2019-04-20T21:28:39.833Z,7.40
2019-04-20T21:31:15.966Z,7.30
2019-04-20T21:33:40.599Z,7.30
2019-04-20T21:36:13.525Z,7.30
2019-04-20T21:38:42.474Z,7.30
2019-04-20T21:41:15.035Z,7.30
2019-04-20T21:43:44.412Z,7.30
2019-04-20T21:46:13.707Z,7.30
2019-04-20T21:48:58.585Z,7.30
2019-04-20T21:51:27.469Z,7.30
2019-04-20T21:53:42.524Z,7.30
2019-04-20T21:56:12.234Z,7.30
2019-04-20T21:58:48.297Z,7.30
2019-04-20T22:01:22.283Z,7.30
2019-04-20T22:03:44.764Z,7.30
2019-04-20T22:06:14.120Z,7.30
2019-04-20T22:08:49.316Z,7.30
2019-04-20T22:11:13.644Z,7.30
2019-04-20T22:13:44.601Z,7.30
2019-04-20T22:16:14.755Z,7.30
2019-04-20T22:18:51.804Z,7.40
2019-04-20T22:21:22.491Z,7.30
2019-04-20T22:23:59.942Z,7.30
2019-04-20T22:26:26.823Z,7.30
2019-04-20T22:28:45.029Z,7.40
2019-04-20T22:31:14.027Z,7.40
2019-04-20T22:33:45.031Z,7.40
2019-04-20T22:36:14.552Z,7.50
2019-04-20T22:39:05.102Z,7.50
2019-04-20T22:41:34.442Z,7.40
2019-04-20T22:44:09.289Z,7.40
2019-04-20T22:46:37.118Z,7.50
2019-04-20T22:49:20.482Z,7.50
2019-04-20T22:51:44.780Z,7.50
2019-04-20T22:54:23.288Z,7.60
2019-04-20T22:56:51.184Z,7.60
2019-04-20T22:59:13.888Z,7.70
2019-04-20T23:01:45.793Z,7.70
2019-04-20T23:04:08.752Z,7.70
2019-04-20T23:06:43.851Z,7.70
2019-04-20T23:09:12.626Z,7.70
2019-04-20T23:11:40.402Z,7.80
2019-04-20T23:14:10.807Z,7.80
2019-04-20T23:16:44.068Z,7.90
2019-04-20T23:19:10.271Z,7.90
2019-04-20T23:21:46.304Z,8.00
2019-04-20T23:24:13.587Z,8.00
2019-04-20T23:26:45.580Z,8.00
2019-04-20T23:29:13.402Z,8.10
2019-04-20T23:31:50.569Z,8.00
2019-04-20T23:34:20.207Z,8.10
2019-04-20T23:36:47.085Z,8.10
2019-04-20T23:39:14.839Z,8.00
2019-04-20T23:41:55.647Z,8.10
2019-04-20T23:44:23.040Z,8.10
2019-04-20T23:47:09.741Z,8.10
2019-04-20T23:49:53.350Z,8.10
2019-04-20T23:52:32.577Z,8.10
2019-04-20T23:54:37.268Z,8.10
2019-04-20T23:57:05.821Z,8.10
2019-04-20T23:59:40.824Z,8.10
